createdAt,value
2017-04-08T00:00:21.537Z,11.29
2017-04-08T00:01:02.189Z,11.25
2017-04-08T00:01:42.834Z,11.25
2017-04-08T00:02:23.491Z,11.25
2017-04-08T00:03:06.190Z,11.3
2017-04-08T00:03:47.870Z,11.26
2017-04-08T00:04:28.540Z,11.22
2017-04-08T00:05:09.178Z,11.25
2017-04-08T00:05:50.871Z,11.18
2017-04-08T00:06:31.507Z,11.22
2017-04-08T00:07:13.180Z,11.22
2017-04-08T00:07:53.958Z,11.22
2017-04-08T00:08:34.589Z,11.22
2017-04-08T00:09:16.289Z,11.23
2017-04-08T00:09:57.957Z,11.22
2017-04-08T00:10:38.604Z,11.23
2017-04-08T00:11:19.304Z,11.18
2017-04-08T00:12:00.038Z,11.14
2017-04-08T00:12:40.683Z,11.14
2017-04-08T00:13:22.352Z,11.15
2017-04-08T00:14:02.999Z,11.18
2017-04-08T00:14:43.653Z,11.18
2017-04-08T00:15:24.330Z,11.22
2017-04-08T00:16:05.066Z,11.22
2017-04-08T00:16:45.799Z,11.17
2017-04-08T00:17:26.470Z,11.22
2017-04-08T00:18:07.138Z,11.1
2017-04-08T00:18:48.811Z,11.17
2017-04-08T00:19:31.500Z,11.18
2017-04-08T00:20:12.231Z,11.08
2017-04-08T00:20:52.886Z,11.17
2017-04-08T00:21:33.468Z,11.15
2017-04-08T00:22:14.112Z,11.14
2017-04-08T00:22:55.836Z,11.15
2017-04-08T00:23:36.527Z,11.17
2017-04-08T00:24:17.634Z,11.15
2017-04-08T00:24:58.288Z,11.1
2017-04-08T00:25:39.975Z,11.15
2017-04-08T00:26:20.664Z,11.1
2017-04-08T00:27:01.245Z,11.08
2017-04-08T00:27:42.917Z,11.1
2017-04-08T00:28:23.604Z,11.1
2017-04-08T00:29:04.300Z,11.05
2017-04-08T00:29:44.900Z,11.05
2017-04-08T00:30:25.572Z,10.99
2017-04-08T00:31:06.275Z,11
2017-04-08T00:31:46.949Z,11
2017-04-08T00:32:27.597Z,10.96
2017-04-08T00:33:08.250Z,11
2017-04-08T00:33:49.940Z,10.94
2017-04-08T00:34:31.602Z,10.9
2017-04-08T00:35:12.330Z,10.93
2017-04-08T00:35:52.905Z,10.97
2017-04-08T00:36:34.576Z,10.93
2017-04-08T00:37:15.209Z,10.92
2017-04-08T00:37:55.784Z,10.92
2017-04-08T00:38:36.431Z,10.94
2017-04-08T00:39:17.065Z,10.87
2017-04-08T00:39:57.640Z,10.86
2017-04-08T00:40:39.410Z,10.92
2017-04-08T00:41:21.138Z,10.89
2017-04-08T00:42:01.828Z,10.89
2017-04-08T00:42:42.410Z,10.9
2017-04-08T00:43:23.160Z,10.9
2017-04-08T00:44:03.853Z,10.82
2017-04-08T00:44:44.446Z,10.87
2017-04-08T00:45:27.164Z,10.89
2017-04-08T00:46:08.816Z,10.87
2017-04-08T00:46:49.391Z,10.84
2017-04-08T00:47:30.058Z,10.9
2017-04-08T00:48:10.779Z,10.86
2017-04-08T00:48:51.353Z,10.81
2017-04-08T00:49:33.059Z,10.82
2017-04-08T00:50:14.791Z,10.86
2017-04-08T00:50:55.367Z,10.79
2017-04-08T00:51:37.035Z,10.84
2017-04-08T00:52:18.696Z,10.86
2017-04-08T00:52:59.264Z,10.76
2017-04-08T00:53:39.951Z,10.79
2017-04-08T00:54:20.649Z,10.75
2017-04-08T00:55:01.224Z,10.71
2017-04-08T00:55:41.874Z,10.75
2017-04-08T00:56:22.618Z,10.71
2017-04-08T00:57:03.171Z,10.75
2017-04-08T00:57:43.833Z,10.71
2017-04-08T00:58:25.486Z,10.76
2017-04-08T00:59:06.058Z,10.78
2017-04-08T00:59:48.759Z,10.78
2017-04-08T01:00:29.418Z,10.71
2017-04-08T01:01:10.066Z,10.76
2017-04-08T01:01:50.719Z,10.72
2017-04-08T01:02:31.379Z,10.68
2017-04-08T01:03:12.027Z,10.74
2017-04-08T01:03:52.709Z,10.71
2017-04-08T01:04:38.047Z,10.72
2017-04-08T01:05:18.691Z,10.69
2017-04-08T01:05:59.345Z,10.67
2017-04-08T01:06:39.999Z,10.72
2017-04-08T01:07:21.674Z,10.74
2017-04-08T01:08:07.973Z,10.68
2017-04-08T01:08:48.623Z,10.72
2017-04-08T01:09:29.277Z,10.67
2017-04-08T01:10:10.004Z,10.69
2017-04-08T01:10:50.553Z,10.67
2017-04-08T01:11:33.276Z,10.68
2017-04-08T01:12:13.905Z,10.72
2017-04-08T01:12:54.482Z,10.74
2017-04-08T01:13:37.178Z,10.57
2017-04-08T01:14:18.851Z,10.71
2017-04-08T01:14:59.422Z,10.61
2017-04-08T01:15:40.053Z,10.6
2017-04-08T01:16:21.750Z,10.61
2017-04-08T01:17:02.399Z,10.64
2017-04-08T01:17:43.156Z,10.67
2017-04-08T01:18:23.894Z,10.64
2017-04-08T01:19:06.683Z,10.64
2017-04-08T01:19:47.352Z,10.69
2017-04-08T01:20:28.042Z,10.69
2017-04-08T01:21:08.742Z,10.61
2017-04-08T01:21:49.311Z,10.64
2017-04-08T01:22:32.019Z,10.64
2017-04-08T01:23:12.722Z,10.69
2017-04-08T01:23:53.404Z,10.67
2017-04-08T01:24:33.984Z,10.72
2017-04-08T01:25:14.742Z,10.56
2017-04-08T01:25:55.380Z,10.57
2017-04-08T01:26:36.032Z,10.67
2017-04-08T01:27:18.769Z,10.68
2017-04-08T01:27:59.493Z,10.64
2017-04-08T01:28:41.177Z,10.59
2017-04-08T01:29:21.845Z,10.64
2017-04-08T01:30:02.523Z,10.53
2017-04-08T01:30:43.228Z,10.53
2017-04-08T01:31:23.834Z,10.51
2017-04-08T01:32:04.532Z,10.57
2017-04-08T01:32:45.229Z,10.54
2017-04-08T01:33:26.953Z,10.53
2017-04-08T01:34:07.516Z,10.57
2017-04-08T01:34:48.222Z,10.56
2017-04-08T01:35:35.835Z,10.54
2017-04-08T01:36:16.393Z,10.53
2017-04-08T01:36:57.121Z,10.53
2017-04-08T01:37:37.784Z,10.57
2017-04-08T01:38:18.378Z,10.59
2017-04-08T01:38:59.050Z,10.53
2017-04-08T01:39:40.714Z,10.56
2017-04-08T01:40:21.292Z,10.53
2017-04-08T01:41:01.940Z,10.44
2017-04-08T01:41:42.672Z,10.56
2017-04-08T01:42:23.252Z,10.54
2017-04-08T01:43:04.938Z,10.51
2017-04-08T01:43:46.683Z,10.48
2017-04-08T01:44:27.255Z,10.49
2017-04-08T01:45:07.913Z,10.51
2017-04-08T01:45:48.634Z,10.51
2017-04-08T01:46:29.196Z,10.48
2017-04-08T01:47:24.542Z,10.46
2017-04-08T01:48:05.240Z,10.46
2017-04-08T01:48:45.836Z,10.51
2017-04-08T01:49:27.488Z,10.51
2017-04-08T01:50:10.164Z,10.49
2017-04-08T01:50:50.818Z,10.46
2017-04-08T01:51:31.574Z,10.46
2017-04-08T01:52:12.228Z,10.48
2017-04-08T01:52:54.007Z,10.44
2017-04-08T01:53:35.685Z,10.44
2017-04-08T01:54:16.439Z,10.42
2017-04-08T01:54:57.022Z,10.46
2017-04-08T01:55:37.786Z,10.37
2017-04-08T01:56:18.471Z,10.44
2017-04-08T01:56:59.153Z,10.4
2017-04-08T01:57:39.722Z,10.4
2017-04-08T01:58:22.430Z,10.38
2017-04-08T01:59:03.125Z,10.35
2017-04-08T01:59:43.833Z,10.37
2017-04-08T02:00:24.387Z,10.42
2017-04-08T02:01:05.030Z,10.46
2017-04-08T02:01:46.749Z,10.38
2017-04-08T02:02:29.500Z,10.4
2017-04-08T02:03:10.065Z,10.31
2017-04-08T02:03:50.755Z,10.31
2017-04-08T02:04:31.411Z,10.37
2017-04-08T02:05:12.108Z,10.35
2017-04-08T02:05:52.671Z,10.33
2017-04-08T02:06:34.373Z,10.34
2017-04-08T02:07:16.090Z,10.3
2017-04-08T02:07:56.769Z,10.3
2017-04-08T02:08:37.336Z,10.4
2017-04-08T02:09:19.036Z,10.33
2017-04-08T02:09:59.710Z,10.37
2017-04-08T02:10:40.367Z,10.35
2017-04-08T02:11:21.013Z,10.35
2017-04-08T02:12:01.683Z,10.34
2017-04-08T02:12:42.321Z,10.31
2017-04-08T02:13:22.982Z,10.38
2017-04-08T02:14:04.651Z,10.34
2017-04-08T02:14:46.439Z,10.22
2017-04-08T02:15:27.161Z,10.22
2017-04-08T02:16:12.515Z,10.2
2017-04-08T02:16:54.192Z,10.22
2017-04-08T02:17:34.934Z,10.33
2017-04-08T02:18:15.635Z,10.23
2017-04-08T02:18:56.356Z,10.3
2017-04-08T02:19:37.002Z,10.28
2017-04-08T02:20:17.709Z,10.23
2017-04-08T02:20:59.428Z,10.22
2017-04-08T02:21:40.001Z,10.26
2017-04-08T02:22:21.785Z,10.23
2017-04-08T02:23:03.487Z,10.23
2017-04-08T02:23:46.227Z,10.19
2017-04-08T02:24:26.814Z,10.25
2017-04-08T02:25:08.527Z,10.3
2017-04-08T02:25:49.272Z,10.23
2017-04-08T02:26:29.971Z,10.17
2017-04-08T02:27:10.544Z,10.23
2017-04-08T02:27:51.187Z,10.19
2017-04-08T02:28:33.934Z,10.28
2017-04-08T02:29:14.631Z,10.22
2017-04-08T02:29:55.192Z,10.22
2017-04-08T02:30:35.843Z,10.2
2017-04-08T02:31:16.638Z,10.2
2017-04-08T02:31:57.354Z,10.23
2017-04-08T02:32:38.012Z,10.3
2017-04-08T02:33:24.504Z,10.23
2017-04-08T02:34:06.178Z,10.28
2017-04-08T02:34:47.863Z,10.3
2017-04-08T02:35:28.595Z,10.25
2017-04-08T02:36:09.171Z,10.28
2017-04-08T02:36:49.928Z,10.26
2017-04-08T02:37:35.266Z,10.16
2017-04-08T02:38:15.837Z,10.16
2017-04-08T02:38:56.608Z,10.22
2017-04-08T02:39:37.333Z,10.16
2017-04-08T02:40:17.897Z,10.22
2017-04-08T02:40:58.646Z,10.19
2017-04-08T02:41:44.020Z,10.16
2017-04-08T02:42:24.773Z,10.13
2017-04-08T02:43:05.426Z,10.26
2017-04-08T02:43:46.189Z,10.2
2017-04-08T02:44:28.881Z,10.22
2017-04-08T02:45:09.628Z,10.16
2017-04-08T02:45:50.279Z,10.07
2017-04-08T02:46:31.973Z,10.12
2017-04-08T02:47:13.619Z,10.16
2017-04-08T02:47:54.296Z,10.15
2017-04-08T02:48:35.050Z,10.1
2017-04-08T02:49:15.703Z,10.12
2017-04-08T02:49:56.457Z,10.1
2017-04-08T02:50:37.214Z,10.1
2017-04-08T02:51:18.892Z,10.1
2017-04-08T02:51:59.641Z,10.16
2017-04-08T02:52:40.403Z,10.12
2017-04-08T02:53:22.086Z,10.12
2017-04-08T02:54:03.850Z,10.07
2017-04-08T02:54:45.521Z,10.1
2017-04-08T02:55:26.270Z,10.16
2017-04-08T02:56:06.843Z,10.12
2017-04-08T02:56:47.610Z,10.09
2017-04-08T02:57:30.378Z,10.04
2017-04-08T02:58:10.948Z,10.07
2017-04-08T02:58:52.626Z,9.99
2017-04-08T02:59:33.257Z,10.04
2017-04-08T03:00:13.863Z,10.05
2017-04-08T03:00:54.583Z,10.02
2017-04-08T03:01:35.328Z,10.01
2017-04-08T03:02:16.080Z,10.09
2017-04-08T03:02:57.670Z,9.98
2017-04-08T03:03:38.423Z,9.95
2017-04-08T03:04:19.175Z,10.02
2017-04-08T03:05:01.879Z,10.01
2017-04-08T03:05:49.273Z,9.99
2017-04-08T03:06:29.881Z,10.05
2017-04-08T03:07:11.367Z,9.99
2017-04-08T03:07:52.153Z,9.94
2017-04-08T03:08:32.733Z,9.98
2017-04-08T03:09:13.733Z,9.99
2017-04-08T03:09:54.420Z,10.02
2017-04-08T03:10:35.015Z,10.04
2017-04-08T03:11:15.762Z,10.04
2017-04-08T03:12:02.026Z,10.01
2017-04-08T03:12:42.783Z,9.99
2017-04-08T03:13:25.498Z,9.97
2017-04-08T03:14:08.216Z,9.99
2017-04-08T03:14:48.942Z,10.02
2017-04-08T03:15:29.696Z,10.01
2017-04-08T03:16:10.449Z,9.97
2017-04-08T03:16:51.254Z,9.94
2017-04-08T03:17:31.991Z,9.94
2017-04-08T03:18:12.717Z,9.89
2017-04-08T03:18:54.397Z,9.95
2017-04-08T03:19:35.146Z,9.97
2017-04-08T03:20:20.510Z,9.84
2017-04-08T03:21:02.290Z,9.86
2017-04-08T03:21:49.605Z,9.86
2017-04-08T03:22:30.357Z,9.87
2017-04-08T03:23:11.117Z,9.87
2017-04-08T03:23:52.789Z,9.86
2017-04-08T03:24:33.565Z,9.95
2017-04-08T03:25:14.299Z,9.84
2017-04-08T03:25:55.041Z,9.87
2017-04-08T03:26:35.626Z,9.83
2017-04-08T03:27:18.303Z,9.84
2017-04-08T03:27:59.043Z,9.89
2017-04-08T03:28:39.595Z,9.89
2017-04-08T03:29:21.330Z,9.91
2017-04-08T03:30:02.027Z,9.86
2017-04-08T03:30:42.597Z,9.83
2017-04-08T03:31:23.247Z,9.79
2017-04-08T03:32:04.006Z,9.73
2017-04-08T03:32:44.770Z,9.79
2017-04-08T03:33:25.533Z,9.83
2017-04-08T03:34:07.289Z,9.82
2017-04-08T03:34:48.049Z,9.69
2017-04-08T03:35:28.797Z,9.84
2017-04-08T03:36:09.366Z,9.76
2017-04-08T03:36:50.129Z,9.74
2017-04-08T03:37:36.800Z,9.77
2017-04-08T03:38:17.391Z,9.76
2017-04-08T03:38:59.150Z,9.72
2017-04-08T03:39:41.822Z,9.66
2017-04-08T03:40:22.415Z,9.72
2017-04-08T03:41:03.046Z,9.73
2017-04-08T03:41:43.735Z,9.72
2017-04-08T03:42:24.430Z,9.79
2017-04-08T03:43:05.108Z,9.72
2017-04-08T03:43:45.852Z,9.68
2017-04-08T03:44:26.557Z,9.65
2017-04-08T03:45:09.303Z,9.73
2017-04-08T03:45:49.872Z,9.69
2017-04-08T03:46:31.650Z,9.69
2017-04-08T03:47:12.643Z,9.56
2017-04-08T03:47:55.389Z,9.61
2017-04-08T03:48:35.971Z,9.66
2017-04-08T03:49:16.726Z,9.64
2017-04-08T03:49:58.435Z,9.58
2017-04-08T03:50:39.189Z,9.59
2017-04-08T03:51:20.969Z,9.62
2017-04-08T03:52:03.669Z,9.62
2017-04-08T03:52:45.452Z,9.55
2017-04-08T03:53:26.220Z,9.55
2017-04-08T03:54:06.961Z,9.56
2017-04-08T03:54:47.726Z,9.55
2017-04-08T03:55:29.401Z,9.56
2017-04-08T03:56:11.148Z,9.55
2017-04-08T03:56:51.887Z,9.61
2017-04-08T03:57:33.673Z,9.54
2017-04-08T03:58:14.416Z,9.61
2017-04-08T03:58:56.089Z,9.58
2017-04-08T03:59:38.800Z,9.51
2017-04-08T04:00:21.494Z,9.51
2017-04-08T04:01:03.201Z,9.51
2017-04-08T04:01:45.876Z,9.54
2017-04-08T04:02:28.577Z,9.51
2017-04-08T04:03:09.339Z,9.55
2017-04-08T04:03:51.124Z,9.58
2017-04-08T04:04:33.812Z,9.55
2017-04-08T04:05:14.567Z,9.58
2017-04-08T04:05:55.322Z,9.58
2017-04-08T04:06:37.004Z,9.5
2017-04-08T04:07:18.884Z,9.55
2017-04-08T04:08:00.670Z,9.56
2017-04-08T04:08:43.398Z,9.55
2017-04-08T04:09:25.158Z,9.55
2017-04-08T04:10:05.899Z,9.55
2017-04-08T04:10:47.625Z,9.55
2017-04-08T04:11:28.317Z,9.51
2017-04-08T04:12:08.886Z,9.55
2017-04-08T04:12:49.668Z,9.56
2017-04-08T04:13:30.480Z,9.54
2017-04-08T04:14:11.236Z,9.54
2017-04-08T04:14:51.813Z,9.62
2017-04-08T04:15:32.609Z,9.55
2017-04-08T04:16:15.349Z,9.64
2017-04-08T04:16:55.975Z,9.55
2017-04-08T04:17:41.600Z,9.54
2017-04-08T04:18:23.346Z,9.64
2017-04-08T04:19:03.928Z,9.66
2017-04-08T04:19:45.701Z,9.62
2017-04-08T04:20:26.430Z,9.64
2017-04-08T04:21:07.187Z,9.64
2017-04-08T04:21:47.942Z,9.65
2017-04-08T04:22:28.698Z,9.62
2017-04-08T04:23:09.462Z,9.62
2017-04-08T04:23:50.209Z,9.73
2017-04-08T04:24:31.985Z,9.68
2017-04-08T04:25:14.787Z,9.65
2017-04-08T04:25:55.550Z,9.73
2017-04-08T04:26:38.346Z,9.56
2017-04-08T04:27:19.102Z,9.55
2017-04-08T04:27:59.857Z,9.68
2017-04-08T04:28:45.324Z,9.64
2017-04-08T04:29:30.795Z,9.62
2017-04-08T04:30:11.394Z,9.72
2017-04-08T04:30:52.121Z,9.64
2017-04-08T04:31:32.816Z,9.65
2017-04-08T04:32:13.622Z,9.64
2017-04-08T04:32:54.190Z,9.66
2017-04-08T04:33:35.994Z,9.69
2017-04-08T04:34:16.761Z,9.64
2017-04-08T04:34:58.468Z,9.64
2017-04-08T04:35:39.055Z,9.61
2017-04-08T04:36:21.859Z,9.61
2017-04-08T04:37:02.576Z,9.68
2017-04-08T04:37:43.139Z,9.59
2017-04-08T04:38:24.925Z,9.65
2017-04-08T04:39:06.685Z,9.62
2017-04-08T04:39:47.293Z,9.66
2017-04-08T04:40:32.618Z,9.66
2017-04-08T04:41:13.355Z,9.65
2017-04-08T04:41:53.921Z,9.66
2017-04-08T04:42:34.676Z,9.64
2017-04-08T04:43:16.447Z,9.64
2017-04-08T04:43:57.053Z,9.65
2017-04-08T04:44:42.616Z,9.66
2017-04-08T04:45:23.313Z,9.68
2017-04-08T04:46:03.909Z,9.64
2017-04-08T04:46:44.634Z,9.65
2017-04-08T04:47:26.400Z,9.66
2017-04-08T04:48:07.011Z,9.76
2017-04-08T04:48:48.756Z,9.64
2017-04-08T04:49:31.533Z,9.61
2017-04-08T04:50:12.111Z,9.72
2017-04-08T04:50:52.856Z,9.64
2017-04-08T04:51:33.626Z,9.69
2017-04-08T04:52:14.377Z,9.68
2017-04-08T04:52:55.139Z,9.69
2017-04-08T04:53:35.875Z,9.61
2017-04-08T04:54:16.628Z,9.64
2017-04-08T04:54:57.399Z,9.65
2017-04-08T04:55:38.137Z,9.66
2017-04-08T04:56:18.900Z,9.65
2017-04-08T04:57:01.601Z,9.64
2017-04-08T04:57:43.385Z,9.64
2017-04-08T04:58:24.131Z,9.65
2017-04-08T04:59:04.886Z,9.72
2017-04-08T04:59:45.642Z,9.73
2017-04-08T05:00:27.429Z,9.61
2017-04-08T05:01:08.177Z,9.64
2017-04-08T05:01:48.940Z,9.72
2017-04-08T05:02:29.700Z,9.64
2017-04-08T05:03:10.450Z,9.73
2017-04-08T05:03:51.210Z,9.66
2017-04-08T05:04:31.987Z,9.69
2017-04-08T05:05:12.709Z,9.64
2017-04-08T05:05:53.408Z,9.65
2017-04-08T05:06:35.033Z,9.74
2017-04-08T05:07:15.626Z,9.64
2017-04-08T05:07:58.296Z,9.65
2017-04-08T05:08:39.908Z,9.64
2017-04-08T05:09:26.341Z,9.69
2017-04-08T05:10:06.935Z,9.64
2017-04-08T05:10:48.595Z,9.74
2017-04-08T05:11:30.248Z,9.69
2017-04-08T05:12:10.811Z,9.69
2017-04-08T05:12:52.508Z,9.62
2017-04-08T05:13:34.150Z,9.64
2017-04-08T05:14:14.717Z,9.64
2017-04-08T05:14:57.329Z,9.65
2017-04-08T05:15:38.993Z,9.74
2017-04-08T05:16:21.677Z,9.64
2017-04-08T05:17:03.354Z,9.73
2017-04-08T05:17:44.006Z,9.72
2017-04-08T05:18:24.668Z,9.66
2017-04-08T05:19:06.337Z,9.69
2017-04-08T05:19:46.994Z,9.59
2017-04-08T05:20:27.597Z,9.72
2017-04-08T05:21:09.243Z,9.61
2017-04-08T05:21:49.881Z,9.72
2017-04-08T05:22:30.560Z,9.73
2017-04-08T05:23:11.212Z,9.74
2017-04-08T05:23:51.845Z,9.79
2017-04-08T05:24:32.504Z,9.73
2017-04-08T05:25:13.184Z,9.79
2017-04-08T05:25:55.791Z,9.74
2017-04-08T05:26:36.493Z,9.82
2017-04-08T05:27:17.070Z,9.74
2017-04-08T05:28:03.546Z,9.79
2017-04-08T05:28:46.191Z,9.86
2017-04-08T05:29:28.835Z,9.73
2017-04-08T05:30:09.423Z,9.79
2017-04-08T05:30:50.063Z,9.83
2017-04-08T05:31:31.780Z,9.84
2017-04-08T05:32:12.378Z,9.84
2017-04-08T05:32:54.055Z,9.84
2017-04-08T05:33:34.722Z,9.84
2017-04-08T05:34:17.486Z,9.86
2017-04-08T05:34:58.182Z,9.92
2017-04-08T05:35:38.824Z,9.83
2017-04-08T05:36:21.408Z,9.82
2017-04-08T05:37:03.119Z,9.94
2017-04-08T05:37:43.754Z,9.86
2017-04-08T05:38:35.069Z,9.91
2017-04-08T05:39:26.573Z,9.84
2017-04-08T05:40:08.246Z,9.86
2017-04-08T05:40:48.871Z,9.84
2017-04-08T05:41:29.434Z,9.84
2017-04-08T05:42:11.130Z,9.97
2017-04-08T05:42:56.670Z,9.95
2017-04-08T05:43:37.244Z,9.95
2017-04-08T05:44:17.940Z,9.92
2017-04-08T05:45:00.581Z,9.95
2017-04-08T05:45:42.260Z,9.92
2017-04-08T05:46:22.904Z,9.98
2017-04-08T05:47:03.556Z,9.97
2017-04-08T05:47:44.210Z,10.02
2017-04-08T05:48:24.859Z,10.04
2017-04-08T05:49:06.546Z,9.95
2017-04-08T05:49:49.240Z,10.01
2017-04-08T05:50:29.856Z,10.02
2017-04-08T05:51:15.089Z,9.98
2017-04-08T05:51:55.760Z,10.02
2017-04-08T05:52:36.365Z,10.02
2017-04-08T05:53:16.925Z,9.97
2017-04-08T05:53:57.604Z,10.01
2017-04-08T05:54:38.302Z,10.05
2017-04-08T05:55:18.970Z,9.92
2017-04-08T05:56:00.658Z,9.98
2017-04-08T05:56:41.438Z,9.98
2017-04-08T05:57:22.160Z,10.04
2017-04-08T05:58:02.812Z,9.97
2017-04-08T05:58:44.486Z,9.99
2017-04-08T05:59:27.189Z,9.95
2017-04-08T06:00:07.841Z,10.04
2017-04-08T06:00:48.509Z,10.02
2017-04-08T06:01:29.184Z,9.98
2017-04-08T06:02:09.877Z,9.98
2017-04-08T06:02:52.583Z,10.07
2017-04-08T06:03:33.152Z,10.07
2017-04-08T06:04:14.851Z,10.12
2017-04-08T06:04:56.568Z,10.05
2017-04-08T06:05:38.184Z,10.1
2017-04-08T06:06:18.751Z,10.12
2017-04-08T06:07:01.357Z,10.1
2017-04-08T06:07:42.040Z,10.01
2017-04-08T06:08:24.690Z,10.1
2017-04-08T06:09:05.242Z,10.1
2017-04-08T06:09:46.936Z,10.1
2017-04-08T06:10:29.714Z,10.09
2017-04-08T06:11:10.371Z,10.2
2017-04-08T06:11:50.966Z,10.09
2017-04-08T06:12:31.596Z,10.07
2017-04-08T06:13:12.284Z,10.19
2017-04-08T06:13:52.881Z,10.22
2017-04-08T06:14:33.451Z,10.17
2017-04-08T06:15:14.099Z,10.19
2017-04-08T06:15:55.761Z,10.09
2017-04-08T06:16:36.340Z,10.09
2017-04-08T06:17:16.992Z,10.09
2017-04-08T06:17:57.617Z,10.09
2017-04-08T06:18:38.188Z,10.13
2017-04-08T06:19:20.886Z,10.16
2017-04-08T06:20:01.523Z,10.13
2017-04-08T06:20:42.094Z,10.12
2017-04-08T06:21:22.751Z,10.15
2017-04-08T06:22:04.472Z,10.31
2017-04-08T06:22:50.687Z,10.16
2017-04-08T06:23:31.265Z,10.26
2017-04-08T06:24:16.558Z,10.25
2017-04-08T06:24:57.314Z,10.28
2017-04-08T06:25:37.894Z,10.2
2017-04-08T06:26:18.616Z,10.17
2017-04-08T06:26:59.213Z,10.22
2017-04-08T06:27:39.805Z,10.2
2017-04-08T06:28:20.437Z,10.23
2017-04-08T06:29:07.729Z,10.23
2017-04-08T06:29:48.313Z,10.33
2017-04-08T06:30:28.956Z,10.3
2017-04-08T06:31:09.687Z,10.34
2017-04-08T06:31:50.251Z,10.31
2017-04-08T06:32:31.931Z,10.3
2017-04-08T06:33:12.677Z,10.46
2017-04-08T06:33:53.235Z,10.42
2017-04-08T06:34:33.911Z,10.42
2017-04-08T06:35:19.745Z,10.4
2017-04-08T06:36:00.407Z,10.48
2017-04-08T06:36:41.060Z,10.49
2017-04-08T06:37:21.712Z,10.49
2017-04-08T06:38:02.365Z,10.54
2017-04-08T06:38:47.731Z,10.59
2017-04-08T06:39:28.385Z,10.56
2017-04-08T06:40:10.053Z,10.56
2017-04-08T06:40:50.813Z,10.59
2017-04-08T06:41:31.470Z,10.51
2017-04-08T06:42:14.163Z,10.64
2017-04-08T06:42:59.730Z,10.6
2017-04-08T06:43:40.391Z,10.6
2017-04-08T06:44:25.750Z,10.53
2017-04-08T06:45:07.428Z,10.48
2017-04-08T06:45:47.986Z,10.53
2017-04-08T06:46:29.711Z,10.49
2017-04-08T06:47:11.334Z,10.6
2017-04-08T06:47:51.890Z,10.61
2017-04-08T06:48:37.082Z,10.68
2017-04-08T06:49:17.794Z,10.69
2017-04-08T06:49:58.376Z,10.64
2017-04-08T06:50:46.093Z,10.71
2017-04-08T06:51:27.774Z,10.69
2017-04-08T06:52:10.938Z,10.67
2017-04-08T06:52:52.651Z,10.75
2017-04-08T06:53:40.055Z,10.75
2017-04-08T06:54:20.717Z,10.72
2017-04-08T06:55:02.399Z,10.74
2017-04-08T06:55:43.048Z,10.82
2017-04-08T06:56:24.725Z,10.89
2017-04-08T06:57:07.420Z,10.86
2017-04-08T06:57:48.076Z,10.99
2017-04-08T06:58:28.729Z,10.99
2017-04-08T06:59:10.425Z,10.96
2017-04-08T06:59:52.086Z,10.93
2017-04-08T07:00:33.764Z,11.04
2017-04-08T07:01:14.393Z,10.99
2017-04-08T07:01:54.953Z,11.04
2017-04-08T07:02:36.652Z,11
2017-04-08T07:03:18.302Z,11.08
2017-04-08T07:03:58.869Z,11.14
2017-04-08T07:04:45.568Z,11.19
2017-04-08T07:05:26.199Z,11.19
2017-04-08T07:06:06.772Z,11.23
2017-04-08T07:06:47.416Z,11.29
2017-04-08T07:07:32.822Z,11.37
2017-04-08T07:08:13.527Z,11.32
2017-04-08T07:08:54.086Z,11.32
2017-04-08T07:09:34.742Z,11.29
2017-04-08T07:10:15.431Z,11.41
2017-04-08T07:10:56.131Z,11.35
2017-04-08T07:11:36.703Z,11.4
2017-04-08T07:12:17.361Z,11.41
2017-04-08T07:12:58.007Z,11.3
2017-04-08T07:13:43.575Z,11.37
2017-04-08T07:14:30.069Z,11.29
2017-04-08T07:15:11.734Z,11.26
2017-04-08T07:15:52.396Z,11.22
2017-04-08T07:16:33.052Z,11.19
2017-04-08T07:17:18.610Z,11.4
2017-04-08T07:18:00.294Z,11.44
2017-04-08T07:18:47.586Z,11.44
2017-04-08T07:19:28.247Z,11.44
2017-04-08T07:20:14.542Z,11.45
2017-04-08T07:20:55.192Z,11.4
2017-04-08T07:21:37.827Z,11.59
2017-04-08T07:22:18.524Z,11.54
2017-04-08T07:22:59.212Z,11.55
2017-04-08T07:23:39.858Z,11.65
2017-04-08T07:24:25.406Z,11.66
2017-04-08T07:25:06.054Z,11.66
2017-04-08T07:25:46.639Z,11.73
2017-04-08T07:26:27.295Z,11.83
2017-04-08T07:27:09.006Z,11.83
2017-04-08T07:27:49.694Z,11.87
2017-04-08T07:28:30.267Z,11.75
2017-04-08T07:29:16.572Z,11.77
2017-04-08T07:30:01.855Z,11.75
2017-04-08T07:30:42.431Z,11.8
2017-04-08T07:31:23.115Z,11.81
2017-04-08T07:32:03.813Z,11.83
2017-04-08T07:32:45.545Z,11.9
2017-04-08T07:33:26.131Z,12
2017-04-08T07:34:07.898Z,11.88
2017-04-08T07:34:48.565Z,11.97
2017-04-08T07:35:31.428Z,12
2017-04-08T07:36:12.167Z,11.99
2017-04-08T07:36:52.820Z,11.94
2017-04-08T07:37:34.600Z,12.02
2017-04-08T07:38:16.285Z,11.91
2017-04-08T07:38:56.933Z,11.9
2017-04-08T07:39:44.237Z,11.94
2017-04-08T07:40:25.917Z,11.86
2017-04-08T07:41:06.492Z,11.87
2017-04-08T07:41:49.222Z,11.94
2017-04-08T07:42:30.958Z,11.86
2017-04-08T07:43:11.580Z,11.99
2017-04-08T07:43:52.383Z,12.03
2017-04-08T07:44:35.055Z,12.03
2017-04-08T07:45:15.617Z,12.09
2017-04-08T07:46:03.045Z,12.1
2017-04-08T07:46:43.702Z,12.09
2017-04-08T07:47:25.359Z,12.17
2017-04-08T07:48:07.035Z,12.27
2017-04-08T07:48:47.930Z,12.36
2017-04-08T07:49:33.568Z,12.29
2017-04-08T07:50:14.403Z,12.46
2017-04-08T07:51:09.617Z,12.42
2017-04-08T07:51:50.314Z,12.55
2017-04-08T07:52:31.022Z,12.64
2017-04-08T07:53:11.630Z,12.7
2017-04-08T07:53:52.350Z,12.58
2017-04-08T07:54:33.028Z,12.55
2017-04-08T07:55:14.780Z,12.5
2017-04-08T07:55:55.332Z,12.43
2017-04-08T07:56:38.068Z,12.39
2017-04-08T07:57:19.736Z,12.37
2017-04-08T07:58:15.109Z,12.49
2017-04-08T07:59:08.597Z,12.58
2017-04-08T07:59:50.243Z,12.72
2017-04-08T08:00:32.947Z,12.73
2017-04-08T08:01:13.596Z,12.8
2017-04-08T08:33:32.003Z,14.11
2017-04-08T08:34:12.752Z,14.17
2017-04-08T08:34:53.414Z,14.25
2017-04-08T08:35:33.975Z,14.23
2017-04-08T08:36:14.632Z,14.26
2017-04-08T08:36:56.399Z,14.32
2017-04-08T08:37:36.996Z,14.41
2017-04-08T08:38:18.730Z,14.44
2017-04-08T08:39:04.192Z,14.4
2017-04-08T08:39:44.770Z,14.41
2017-04-08T08:40:25.417Z,14.5
2017-04-08T08:41:08.098Z,14.48
2017-04-08T08:41:59.708Z,14.47
2017-04-08T08:42:46.201Z,14.28
2017-04-08T08:43:26.850Z,14.25
2017-04-08T08:44:07.604Z,14.25
2017-04-08T08:44:49.385Z,14.35
2017-04-08T08:45:31.164Z,14.29
2017-04-08T08:46:13.970Z,14.29
2017-04-08T08:47:00.275Z,14.28
2017-04-08T08:47:41.928Z,14.43
2017-04-08T08:48:24.630Z,14.44
2017-04-08T08:49:05.284Z,14.45
2017-04-08T08:49:50.746Z,14.4
2017-04-08T08:50:38.263Z,14.53
2017-04-08T08:51:18.883Z,14.55
2017-04-08T09:00:05.446Z,15.14
2017-04-08T09:00:47.176Z,15.18
2017-04-08T09:01:27.936Z,15.17
2017-04-08T09:02:08.691Z,15.21
2017-04-08T09:02:49.463Z,15.11
2017-04-08T09:03:30.205Z,15.07
2017-04-08T09:04:10.849Z,15.14
2017-04-08T09:04:57.239Z,15.11
2017-04-08T09:05:37.997Z,15.09
2017-04-08T09:06:18.749Z,15.07
2017-04-08T09:06:59.501Z,15.04
2017-04-08T09:07:40.301Z,15.07
2017-04-08T09:08:21.027Z,14.99
2017-04-08T09:09:01.772Z,14.99
2017-04-08T09:09:42.549Z,14.97
2017-04-08T09:10:23.329Z,14.96
2017-04-08T09:11:04.036Z,15.11
2017-04-08T09:11:44.776Z,15.14
2017-04-08T09:12:25.529Z,15.04
2017-04-08T09:13:06.288Z,15.21
2017-04-08T09:13:47.042Z,15.06
2017-04-08T09:14:28.100Z,15.15
2017-04-08T09:15:08.856Z,15.15
2017-04-08T09:15:49.617Z,15.17
2017-04-08T09:16:30.985Z,15.03
2017-04-08T09:17:11.666Z,15.07
2017-04-08T09:17:52.392Z,15.1
2017-04-08T09:18:33.090Z,15.07
2017-04-08T09:19:13.659Z,15.1
2017-04-08T09:19:55.317Z,15.1
2017-04-08T09:20:36.992Z,15.21
2017-04-08T09:21:17.644Z,15.18
2017-04-08T09:21:58.298Z,15.28
2017-04-08T09:22:38.957Z,15.29
2017-04-08T09:23:19.605Z,15.25
2017-04-08T09:24:00.278Z,15.36
2017-04-08T09:24:40.912Z,15.33
2017-04-08T09:25:21.561Z,15.42
2017-04-08T09:26:02.219Z,15.43
2017-04-08T09:26:42.871Z,15.39
2017-04-08T09:27:23.522Z,15.33
2017-04-08T09:28:04.180Z,15.28
2017-04-08T09:28:44.832Z,15.21
2017-04-08T09:29:25.587Z,15.24
2017-04-08T09:30:06.236Z,15.18
2017-04-08T09:30:46.890Z,15.19
2017-04-08T09:31:27.541Z,15.14
2017-04-08T09:32:08.196Z,15.09
2017-04-08T09:32:48.853Z,15.09
2017-04-08T09:33:29.499Z,15.17
2017-04-08T09:34:10.155Z,15.11
2017-04-08T09:34:50.808Z,15.06
2017-04-08T09:35:31.467Z,15.11
2017-04-08T09:36:12.045Z,15.19
2017-04-08T09:36:52.689Z,15.19
2017-04-08T09:37:33.347Z,15.27
2017-04-08T09:38:13.893Z,15.22
2017-04-08T09:38:54.537Z,15.1
2017-04-08T09:39:35.174Z,15.19
2017-04-08T09:40:15.748Z,15.15
2017-04-08T09:40:56.403Z,15.15
2017-04-08T09:41:37.132Z,15.14